Elba, Illinois
Current Conditions -  °F | °C
As of 11:35 PM on Sunday 19 Oct 2014 (Local Time) from KCUL Reporting Station
Clear Clear  
Wind Chill: 47°   Ceiling: Unl
Heat Index: 47°   Visibility: 10mi
Dew Point: 46°   Wind: 3mph
Humidity: 97%   Direction: 170°S
Pressure: 30.06"   Gusts: NA
Location:  37.8866°N, 88.266°W
Report Text: KCUL 200435Z AUTO 17003KT 10SM CLR 08/08 A3006 RMK AO2 T00810076
Loading
Personal Weather Stations






























Interactive Weather Map
Tropical Storm Tracking
New forecast layout! Learn more

10-Day Weather Forecast

Advertisements
Track Severe Weather on mobile